Oak Hill, Florida
Current Conditions -  °F | °C
As of 7:47 PM on Monday 24 Nov 2014 (Local Time) from KEVB Reporting Station
Scattered Clouds Scattered Clouds  
Wind Chill: 73°   Ceiling: Unl
Heat Index: 73°   Visibility: 10mi
Dew Point: 70°   Wind: 0mph
Humidity: 88%   Direction: NA
Pressure: 29.98"   Gusts: NA
Location:  28.86°N, 80.85°W
Report Text: KEVB 250047Z 00000KT 10SM SCT050 23/21 A2998
Loading
Personal Weather Stations






























Interactive Weather Map New forecast layout! Learn more

10-Day Weather Forecast

Advertisements
Track Severe Weather on mobile